Oasis of the Seas — C6XS7 — position and weather

sailwx.info

Track history (hours):
 
Tides and Currents Weather Stations Pressure Air Temp Water Temp Dewpoint Dewpoint Depression Visibility Wind Speed Wind Dir Waves Ship Positions

Oasis of the Seas

Last reported at 2014-Jul-30 22:24 UTC. Time now 2014-Aug-01 22:30 UTC.
Position N 18°10' W 063°23'.

Length 360 m; draft 9.3 m.

Type: Passenger vessel. MMSI: 311020600.

Date/timePositionNaut miles runAvg speedWind from/ knotsBaromVisibWave heightAir tempDewpointWater temp
2014-Jul-30 22:24N 18°10' W 063°23'1618.1
2014-Jul-30 21:31N 18°01' W 063°09'5 0.5
2014-Jul-30 11:19N 18°00' W 063°04'16 8.9
2014-Jul-30 09:33N 18°00' W 063°21'9 9.1
2014-Jul-30 08:31N 18°00' W 063°31'9 9.0
2014-Jul-30 07:32N 18°01' W 063°40'  
2014-Jul-26 23:33N 26°07' W 079°38'1414.3
2014-Jul-26 22:33N 26°07' W 079°54'1111.4
2014-Jul-26 21:32N 26°05' W 080°07'0 0.3
2014-Jul-26 20:33N 26°05' W 080°07'0 0.0
2014-Jul-26 19:24N 26°05' W 080°07'0 0.0
2014-Jul-26 18:24N 26°05' W 080°07'0 0.0
2014-Jul-26 17:27N 26°05' W 080°07'0 0.0
2014-Jul-26 16:27N 26°05' W 080°07'0 0.0
2014-Jul-26 15:27N 26°05' W 080°07'0 0.0
2014-Jul-26 14:30N 26°05' W 080°07'0 0.0
2014-Jul-26 13:30N 26°05' W 080°07'0 0.0
2014-Jul-26 12:30N 26°05' W 080°07'0 0.0
2014-Jul-26 11:33N 26°05' W 080°07'0 0.0
2014-Jul-26 10:33N 26°05' W 080°07'0 0.3
2014-Jul-26 09:33N 26°05' W 080°07'9 9.5
2014-Jul-26 08:33N 25°59' W 079°60'1918.5
2014-Jul-26 07:33N 25°40' W 079°58'  
Track history (hours):
 
Tides and Currents Weather Stations Pressure Air Temp Water Temp Dewpoint Dewpoint Depression Visibility Wind Speed Wind Dir Waves Ship Positions

Oasis of the Seas

Last reported at 2014-Jul-30 22:24 UTC. Time now 2014-Aug-01 22:30 UTC.
Position N 18°10' W 063°23'.

Length 360 m; draft 9.3 m.

Type: Passenger vessel. MMSI: 311020600.

Date/timePositionNaut miles runAvg speedWind from/ knotsBaromVisibWave heightAir tempDewpointWater temp
2014-Jul-30 22:24N 18°10' W 063°23'1618.1
2014-Jul-30 21:31N 18°01' W 063°09'5 0.5
2014-Jul-30 11:19N 18°00' W 063°04'16 8.9
2014-Jul-30 09:33N 18°00' W 063°21'9 9.1
2014-Jul-30 08:31N 18°00' W 063°31'9 9.0
2014-Jul-30 07:32N 18°01' W 063°40'  
2014-Jul-26 23:33N 26°07' W 079°38'1414.3
2014-Jul-26 22:33N 26°07' W 079°54'1111.4
2014-Jul-26 21:32N 26°05' W 080°07'0 0.3
2014-Jul-26 20:33N 26°05' W 080°07'0 0.0
2014-Jul-26 19:24N 26°05' W 080°07'0 0.0
2014-Jul-26 18:24N 26°05' W 080°07'0 0.0
2014-Jul-26 17:27N 26°05' W 080°07'0 0.0
2014-Jul-26 16:27N 26°05' W 080°07'0 0.0
2014-Jul-26 15:27N 26°05' W 080°07'0 0.0
2014-Jul-26 14:30N 26°05' W 080°07'0 0.0
2014-Jul-26 13:30N 26°05' W 080°07'0 0.0
2014-Jul-26 12:30N 26°05' W 080°07'0 0.0
2014-Jul-26 11:33N 26°05' W 080°07'0 0.0
2014-Jul-26 10:33N 26°05' W 080°07'0 0.3
2014-Jul-26 09:33N 26°05' W 080°07'9 9.5
2014-Jul-26 08:33N 25°59' W 079°60'1918.5
2014-Jul-26 07:33N 25°40' W 079°58'  

Dump ship's entire track history